Time;durP1;ratioP1;P1;durP2;ratioP2;P2;SDS_P1;SDS_P2;PMS_P1;PMS_P2;Temp;Humidity;BMP_temperature;BMP_pressure;BME280_temperature;BME280_humidity;BME280_pressure;Samples;Min_cycle;Max_cycle;Signal;HPM_P1;HPM_P2
2021/04/10 00:01:16;;;;;;;14.50;10.20;;;;;;;7.78;75.98;99137.28;4968644;28;20043;-71
2021/04/10 00:03:42;;;;;;;16.02;10.07;;;;;;;7.82;76.12;99137.97;4969271;28;20031;-70
2021/04/10 00:06:08;;;;;;;12.27;8.88;;;;;;;7.80;75.43;99127.56;4969622;28;20035;-69
2021/04/10 00:08:33;;;;;;;10.07;8.23;;;;;;;7.81;75.74;99129.25;4969378;28;20039;-69
2021/04/10 00:10:58;;;;;;;14.43;8.02;;;;;;;7.78;75.66;99124.16;4968532;28;20093;-68
2021/04/10 00:13:24;;;;;;;20.13;9.68;;;;;;;7.78;75.54;99132.03;4969171;28;20074;-69
2021/04/10 00:15:50;;;;;;;12.45;8.32;;;;;;;7.79;75.58;99138.97;4967988;28;20054;-70
2021/04/10 00:18:16;;;;;;;14.05;9.95;;;;;;;7.81;75.92;99139.75;4969078;28;20088;-68
2021/04/10 00:20:42;;;;;;;11.32;8.43;;;;;;;7.76;75.96;99141.75;4968698;28;20108;-69
2021/04/10 00:23:07;;;;;;;13.55;10.10;;;;;;;7.74;75.88;99147.06;4969059;28;20047;-69
2021/04/10 00:25:32;;;;;;;11.40;8.77;;;;;;;7.82;75.64;99137.97;4967508;28;20043;-68
2021/04/10 00:27:58;;;;;;;12.07;9.25;;;;;;;7.84;75.71;99131.72;4966013;28;20442;-68
2021/04/10 00:30:23;;;;;;;15.70;9.50;;;;;;;7.81;75.48;99131.88;4968319;28;20134;-68
2021/04/10 00:32:49;;;;;;;11.63;8.75;;;;;;;7.83;75.54;99132.66;4966300;28;20050;-68
2021/04/10 00:35:14;;;;;;;14.77;9.23;;;;;;;7.87;74.95;99128.94;4967707;28;20061;-69
2021/04/10 00:37:40;;;;;;;12.23;9.00;;;;;;;7.88;75.40;99135.91;4969606;28;20519;-69
2021/04/10 00:40:07;;;;;;;10.75;8.82;;;;;;;7.72;75.41;99134.94;4968440;28;20038;-68
2021/04/10 00:42:34;;;;;;;10.55;7.40;;;;;;;7.75;75.21;99142.66;4969547;28;21062;-67
2021/04/10 00:44:59;;;;;;;11.15;8.57;;;;;;;7.82;75.67;99151.94;4969292;28;20037;-69
2021/04/10 00:47:25;;;;;;;13.05;8.13;;;;;;;7.80;75.07;99139.81;4970806;28;20043;-69
2021/04/10 00:49:50;;;;;;;13.45;8.98;;;;;;;7.82;76.28;99133.56;4976992;28;20046;-69
2021/04/10 00:52:17;;;;;;;10.07;7.25;;;;;;;7.83;75.91;99135.28;4978965;28;20051;-69
2021/04/10 00:54:45;;;;;;;11.88;9.40;;;;;;;7.85;75.74;99133.44;4973871;28;20109;-69
2021/04/10 00:57:10;;;;;;;11.80;8.93;;;;;;;7.79;75.73;99132.88;4972473;28;20494;-69
2021/04/10 00:59:36;;;;;;;12.20;9.48;;;;;;;7.74;76.02;99131.31;4971719;28;20101;-69
2021/04/10 01:02:02;;;;;;;14.63;9.43;;;;;;;7.74;75.96;99135.72;4954878;28;20046;-69
2021/04/10 01:04:28;;;;;;;10.88;7.72;;;;;;;7.77;75.71;99126.84;4972013;28;20469;-69
2021/04/10 01:06:53;;;;;;;11.25;7.85;;;;;;;7.78;75.42;99124.16;4954489;28;20051;-69
2021/04/10 01:09:19;;;;;;;13.25;8.68;;;;;;;7.76;75.86;99126.00;4972181;28;20034;-69
2021/04/10 01:12:05;;;;;;;12.35;7.30;;;;;;;7.81;75.02;99134.50;4971536;28;20113;-68
2021/04/10 01:14:40;;;;;;;9.68;8.27;;;;;;;7.82;74.60;99130.94;4971581;28;20031;-68
2021/04/10 01:17:13;;;;;;;10.52;8.13;;;;;;;7.81;74.76;99129.25;4971687;28;20058;-68
2021/04/10 01:20:06;;;;;;;13.60;8.45;;;;;;;7.80;75.67;99131.94;4968330;28;20027;-68
2021/04/10 01:22:35;;;;;;;12.60;10.68;;;;;;;7.82;75.80;99135.34;4971234;28;20042;-69
2021/04/10 01:25:03;;;;;;;15.57;9.98;;;;;;;7.75;76.01;99121.66;4971744;28;20442;-70
2021/04/10 01:27:33;;;;;;;9.90;7.95;;;;;;;7.71;75.93;99118.34;4971619;28;20117;-69
2021/04/10 01:30:11;;;;;;;11.85;8.30;;;;;;;7.69;76.03;99117.56;4971024;28;20446;-69
2021/04/10 01:32:42;;;;;;;10.40;8.20;;;;;;;7.68;75.69;99110.63;4971423;28;20038;-69
2021/04/10 01:35:18;;;;;;;10.63;7.60;;;;;;;7.73;75.72;99118.28;4971475;28;20035;-67
2021/04/10 01:37:52;;;;;;;12.27;7.82;;;;;;;7.65;75.78;99134.38;4971654;28;20058;-69
2021/04/10 01:40:18;;;;;;;11.52;9.30;;;;;;;7.63;76.44;99135.38;4970995;28;20034;-69
2021/04/10 01:42:46;;;;;;;11.27;8.95;;;;;;;7.57;76.24;99131.28;4971473;28;20134;-68
2021/04/10 01:45:12;;;;;;;9.25;8.27;;;;;;;7.56;76.18;99132.22;4971097;28;20166;-69
2021/04/10 01:47:40;;;;;;;12.90;8.45;;;;;;;7.52;76.59;99136.72;4971002;28;20512;-67
2021/04/10 01:50:06;;;;;;;10.02;7.72;;;;;;;7.52;76.14;99128.03;4970781;28;20126;-69
2021/04/10 01:52:32;;;;;;;12.35;10.13;;;;;;;7.56;76.93;99129.59;4971420;28;20169;-68
2021/04/10 01:55:00;;;;;;;11.38;9.75;;;;;;;7.51;76.80;99119.31;4971719;28;20035;-67
2021/04/10 01:57:27;;;;;;;10.95;9.40;;;;;;;7.47;76.92;99120.38;4970390;28;20422;-68
2021/04/10 01:59:53;;;;;;;8.93;7.30;;;;;;;7.46;76.82;99117.84;4969982;28;20042;-69
2021/04/10 02:02:21;;;;;;;13.27;9.45;;;;;;;7.44;77.13;99119.69;4971562;28;20039;-69
2021/04/10 02:04:47;;;;;;;13.77;9.75;;;;;;;7.42;77.10;99124.97;4971241;28;20045;-68
2021/04/10 02:07:14;;;;;;;14.40;11.07;;;;;;;7.43;77.56;99124.06;4970917;28;20039;-69
2021/04/10 02:09:46;;;;;;;11.73;8.05;;;;;;;7.46;77.32;99128.31;4970268;28;20501;-69
2021/04/10 02:12:13;;;;;;;9.07;7.18;;;;;;;7.42;77.19;99124.13;4970861;28;20045;-69
2021/04/10 02:14:40;;;;;;;15.55;9.43;;;;;;;7.41;77.51;99131.16;4970550;28;20170;-68
2021/04/10 02:17:07;;;;;;;17.48;9.88;;;;;;;7.39;77.85;99119.88;4970936;28;20502;-68
2021/04/10 02:19:32;;;;;;;10.95;8.00;;;;;;;7.36;77.77;99127.91;4970580;28;20038;-69
2021/04/10 02:21:58;;;;;;;13.77;8.18;;;;;;;7.42;77.38;99137.25;4970355;28;20453;-69
2021/04/10 02:24:23;;;;;;;11.35;8.73;;;;;;;7.37;77.25;99129.59;4953554;28;20484;-69
2021/04/10 02:26:49;;;;;;;12.70;8.35;;;;;;;7.40;77.42;99123.34;4970983;28;20035;-69
2021/04/10 02:29:14;;;;;;;11.93;8.27;;;;;;;7.36;77.40;99122.66;4970338;28;20486;-69
2021/04/10 02:31:45;;;;;;;12.98;7.93;;;;;;;7.40;76.47;99137.31;4970073;28;20110;-69
2021/04/10 02:34:20;;;;;;;14.07;7.40;;;;;;;7.38;76.82;99141.78;4970398;28;20043;-68
2021/04/10 02:36:49;;;;;;;12.93;8.30;;;;;;;7.41;76.61;99135.53;4970816;28;20038;-68
2021/04/10 02:39:18;;;;;;;11.05;8.60;;;;;;;7.45;76.76;99150.22;4956132;28;20031;-67
2021/04/10 02:41:46;;;;;;;12.13;9.35;;;;;;;7.47;76.42;99145.75;4950571;28;20035;-67
2021/04/10 02:44:13;;;;;;;10.10;7.78;;;;;;;7.40;75.99;99145.19;4950964;28;20101;-69
2021/04/10 02:46:45;;;;;;;11.27;7.47;;;;;;;7.41;76.10;99146.91;4950924;28;20410;-69
2021/04/10 02:49:15;;;;;;;8.95;7.22;;;;;;;7.41;76.15;99144.28;4950840;28;20062;-69
2021/04/10 02:51:42;;;;;;;12.00;7.63;;;;;;;7.37;76.58;99140.09;4949482;28;20073;-69
2021/04/10 02:54:11;;;;;;;10.70;7.75;;;;;;;7.39;76.50;99142.66;4951092;28;20066;-68
2021/04/10 02:56:41;;;;;;;12.32;8.68;;;;;;;7.40;76.37;99145.19;4952415;28;20418;-69
2021/04/10 02:59:09;;;;;;;12.00;8.73;;;;;;;7.36;76.78;99148.00;4953396;28;20039;-69
2021/04/10 03:01:36;;;;;;;8.90;7.22;;;;;;;7.32;76.73;99148.16;4952712;28;20169;-68
2021/04/10 03:04:02;;;;;;;9.07;7.57;;;;;;;7.30;76.58;99155.25;4950911;28;20407;-68
2021/04/10 03:06:31;;;;;;;10.95;9.20;;;;;;;7.27;77.22;99159.78;4950737;28;20074;-70
2021/04/10 03:08:57;;;;;;;22.00;9.05;;;;;;;7.19;77.44;99160.13;4950680;28;20085;-68
2021/04/10 03:11:23;;;;;;;7.95;6.00;;;;;;;7.13;77.82;99157.78;4952175;28;20102;-69
2021/04/10 03:13:49;;;;;;;11.10;8.23;;;;;;;7.16;77.34;99162.03;4950859;28;20031;-68
2021/04/10 03:16:15;;;;;;;11.13;7.32;;;;;;;7.14;77.12;99164.75;4950512;28;20042;-67
2021/04/10 03:18:44;;;;;;;9.60;8.18;;;;;;;7.09;77.28;99161.47;4950593;28;20058;-68
2021/04/10 03:21:10;;;;;;;10.38;8.93;;;;;;;7.06;77.54;99161.59;4948672;28;20043;-68
2021/04/10 03:23:35;;;;;;;14.57;10.48;;;;;;;7.00;77.87;99167.13;4950817;28;20042;-68
2021/04/10 03:26:02;;;;;;;9.40;6.80;;;;;;;6.99;78.05;99154.91;4950576;28;20031;-69
2021/04/10 03:28:29;;;;;;;8.55;5.80;;;;;;;7.05;77.18;99154.66;4950461;28;20031;-68
2021/04/10 03:30:57;;;;;;;11.00;9.05;;;;;;;7.03;77.50;99152.09;4950269;28;20035;-69
2021/04/10 03:33:23;;;;;;;10.65;7.95;;;;;;;6.96;77.74;99155.91;4950692;28;20069;-70
2021/04/10 03:35:48;;;;;;;14.55;10.10;;;;;;;6.91;78.31;99159.66;4950305;28;20041;-69
2021/04/10 03:38:14;;;;;;;10.85;9.48;;;;;;;6.85;78.29;99159.03;4950228;28;20039;-67
2021/04/10 03:40:40;;;;;;;10.80;9.20;;;;;;;6.84;78.44;99161.69;4949765;28;20063;-68
2021/04/10 03:43:05;;;;;;;11.57;8.90;;;;;;;6.85;78.09;99158.19;4949936;28;20042;-69
2021/04/10 03:45:31;;;;;;;12.13;9.80;;;;;;;6.81;78.23;99159.22;4950108;28;20613;-69
2021/04/10 03:47:56;;;;;;;11.23;9.63;;;;;;;6.75;78.93;99159.50;4949870;28;20043;-69
2021/04/10 03:50:22;;;;;;;8.57;6.75;;;;;;;6.69;78.97;99165.00;4950159;28;20119;-69
2021/04/10 03:52:49;;;;;;;10.15;7.25;;;;;;;6.69;78.35;99167.59;4950711;28;20502;-68
2021/04/10 03:55:15;;;;;;;8.38;6.40;;;;;;;6.70;78.24;99166.72;4962588;28;20143;-68
2021/04/10 03:57:40;;;;;;;12.05;9.50;;;;;;;6.70;78.58;99174.56;4966996;28;20628;-69
2021/04/10 04:00:07;;;;;;;10.27;8.75;;;;;;;6.64;78.86;99175.66;4968723;28;20031;-68
2021/04/10 04:02:33;;;;;;;13.48;9.50;;;;;;;6.58;79.26;99174.16;4968951;28;20406;-68
2021/04/10 04:04:58;;;;;;;13.85;10.98;;;;;;;6.54;79.74;99172.59;4968978;28;20031;-68
2021/04/10 04:07:23;;;;;;;10.07;8.43;;;;;;;6.52;79.20;99174.44;4969358;28;20069;-68
2021/04/10 04:09:49;;;;;;;10.48;8.55;;;;;;;6.52;79.25;99176.19;4968740;28;20031;-68
2021/04/10 04:12:14;;;;;;;12.52;7.97;;;;;;;6.54;79.52;99175.19;4968851;28;20463;-68
2021/04/10 04:14:40;;;;;;;7.90;6.28;;;;;;;6.61;79.33;99175.81;4968906;28;20062;-67
2021/04/10 04:17:06;;;;;;;12.65;7.30;;;;;;;6.68;78.72;99177.25;4968936;28;20070;-69
2021/04/10 04:19:35;;;;;;;6.57;5.88;;;;;;;6.71;78.16;99182.34;4969619;28;20070;-68
2021/04/10 04:22:01;;;;;;;10.70;7.05;;;;;;;6.69;78.53;99186.78;4968662;28;20374;-68
2021/04/10 04:24:27;;;;;;;11.10;8.85;;;;;;;6.65;78.48;99183.47;4951652;28;20555;-70
2021/04/10 04:26:52;;;;;;;14.10;8.68;;;;;;;6.60;78.68;99179.34;4973196;28;20039;-69
2021/04/10 04:29:18;;;;;;;13.23;7.15;;;;;;;6.58;78.70;99179.41;4972747;28;20038;-69
2021/04/10 04:31:43;;;;;;;12.50;10.30;;;;;;;6.58;78.77;99184.66;4972309;28;20173;-70
2021/04/10 04:34:09;;;;;;;9.43;7.90;;;;;;;6.57;78.82;99180.34;4972457;28;20089;-69
2021/04/10 04:36:34;;;;;;;8.27;7.15;;;;;;;6.61;78.46;99174.03;4972503;28;20109;-69
2021/04/10 04:38:59;;;;;;;10.55;9.20;;;;;;;6.59;78.88;99180.25;4953633;28;20402;-68
2021/04/10 04:41:25;;;;;;;9.00;7.50;;;;;;;6.56;78.60;99178.63;4972132;28;20405;-69
2021/04/10 04:43:50;;;;;;;9.23;7.43;;;;;;;6.54;78.46;99184.84;4959356;28;20035;-69
2021/04/10 04:46:15;;;;;;;7.63;6.15;;;;;;;6.51;78.85;99191.06;4952870;28;20491;-69
2021/04/10 04:48:41;;;;;;;9.77;7.10;;;;;;;6.51;78.60;99182.34;4952952;28;20086;-69
2021/04/10 04:51:06;;;;;;;12.55;9.38;;;;;;;6.50;78.20;99186.75;4952741;28;20454;-69
2021/04/10 04:53:32;;;;;;;9.38;8.23;;;;;;;6.45;79.01;99192.16;4951695;28;20032;-69
2021/04/10 04:55:57;;;;;;;11.65;9.10;;;;;;;6.47;79.24;99189.47;4953008;28;20047;-69
2021/04/10 04:58:23;;;;;;;8.75;7.55;;;;;;;6.45;79.19;99199.19;4953527;28;20679;-69
2021/04/10 05:00:48;;;;;;;8.88;7.97;;;;;;;6.44;78.87;99202.69;4951213;28;20462;-69
2021/04/10 05:03:14;;;;;;;8.98;7.13;;;;;;;6.45;78.54;99200.03;4952738;28;20047;-69
2021/04/10 05:05:39;;;;;;;9.07;7.82;;;;;;;6.47;79.21;99199.94;4952447;28;20058;-69
2021/04/10 05:08:05;;;;;;;9.57;8.57;;;;;;;6.47;79.17;99199.09;4952796;28;20035;-69
2021/04/10 05:10:30;;;;;;;7.35;5.60;;;;;;;6.50;79.04;99207.69;4952354;28;20510;-69
2021/04/10 05:12:55;;;;;;;8.60;6.68;;;;;;;6.58;78.66;99208.22;4952429;28;20031;-67
2021/04/10 05:15:21;;;;;;;8.82;5.35;;;;;;;6.62;78.46;99209.78;4955462;28;20039;-68
2021/04/10 05:17:46;;;;;;;8.60;5.82;;;;;;;6.73;78.26;99214.56;4952266;28;20081;-69
2021/04/10 05:20:12;;;;;;;10.25;7.13;;;;;;;6.78;77.52;99214.38;4951802;28;20046;-69
2021/04/10 05:22:37;;;;;;;11.57;9.93;;;;;;;6.81;77.75;99217.69;4951875;28;20051;-69
2021/04/10 05:25:04;;;;;;;9.77;8.10;;;;;;;6.75;78.21;99222.38;4952346;28;20045;-69
2021/04/10 05:27:29;;;;;;;10.35;8.18;;;;;;;6.71;77.86;99228.66;4952202;28;20035;-69
2021/04/10 05:29:55;;;;;;;10.30;8.02;;;;;;;6.66;78.39;99227.06;4952365;28;20042;-68
2021/04/10 05:32:20;;;;;;;13.32;9.60;;;;;;;6.62;78.87;99225.50;4952528;28;20138;-68
2021/04/10 05:34:45;;;;;;;10.20;8.18;;;;;;;6.60;78.87;99222.09;4952286;28;20058;-68
2021/04/10 05:37:11;;;;;;;10.07;8.15;;;;;;;6.57;79.09;99229.22;4952309;28;20035;-69
2021/04/10 05:39:37;;;;;;;11.95;8.88;;;;;;;6.54;79.22;99227.56;4953125;28;20046;-68
2021/04/10 05:42:02;;;;;;;11.85;9.30;;;;;;;6.52;79.44;99223.31;4956585;28;20047;-68
2021/04/10 05:44:27;;;;;;;9.88;8.23;;;;;;;6.58;79.19;99229.16;4956530;28;20055;-68
2021/04/10 05:46:53;;;;;;;13.18;8.70;;;;;;;6.69;79.36;99231.31;4956032;28;20028;-69
2021/04/10 05:49:18;;;;;;;14.18;9.85;;;;;;;6.79;78.88;99242.25;4952987;28;20483;-68
2021/04/10 05:51:43;;;;;;;10.73;7.75;;;;;;;6.84;78.24;99238.56;4950647;28;20043;-69
2021/04/10 05:54:09;;;;;;;14.57;9.15;;;;;;;6.88;78.23;99236.63;4951950;28;20174;-69
2021/04/10 05:56:37;;;;;;;14.55;8.05;;;;;;;6.92;78.42;99240.84;4952221;28;20147;-68
2021/04/10 05:59:03;;;;;;;9.40;8.27;;;;;;;6.93;78.22;99246.91;4951783;28;20054;-69
2021/04/10 06:01:29;;;;;;;8.57;6.25;;;;;;;6.95;77.77;99248.56;4951253;28;20044;-68
2021/04/10 06:03:58;;;;;;;10.13;7.78;;;;;;;7.01;77.97;99247.44;4952297;28;20028;-69
2021/04/10 06:06:23;;;;;;;10.52;7.68;;;;;;;7.04;78.00;99249.94;4952010;28;20043;-69
2021/04/10 06:08:49;;;;;;;8.38;6.72;;;;;;;7.06;77.83;99248.09;4951608;28;20031;-68
2021/04/10 06:11:15;;;;;;;8.52;6.72;;;;;;;7.10;77.87;99253.13;4950554;28;20031;-69
2021/04/10 06:13:40;;;;;;;7.45;5.90;;;;;;;7.14;77.22;99248.63;4950988;28;20118;-68
2021/04/10 06:16:10;;;;;;;9.02;7.38;;;;;;;7.18;77.02;99249.31;4952491;28;20059;-69
2021/04/10 06:18:35;;;;;;;10.10;7.03;;;;;;;7.22;76.95;99251.75;4951862;28;20114;-69
2021/04/10 06:21:00;;;;;;;9.48;7.07;;;;;;;7.29;76.93;99254.97;4950140;28;20645;-69
2021/04/10 06:23:26;;;;;;;10.30;6.78;;;;;;;7.35;76.71;99253.81;4951554;28;20035;-69
2021/04/10 06:25:51;;;;;;;11.07;6.90;;;;;;;7.37;76.29;99252.00;4951713;28;20495;-70
2021/04/10 06:28:17;;;;;;;10.52;6.90;;;;;;;7.42;76.30;99256.09;4951138;28;20066;-69
2021/04/10 06:30:42;;;;;;;10.23;7.13;;;;;;;7.49;76.29;99257.53;4950821;28;20062;-70
2021/04/10 06:33:07;;;;;;;11.32;7.93;;;;;;;7.53;75.81;99256.47;4950238;28;20031;-68
2021/04/10 06:35:33;;;;;;;8.93;7.13;;;;;;;7.55;76.43;99248.53;4951450;28;20043;-69
2021/04/10 06:37:58;;;;;;;8.23;6.70;;;;;;;7.61;75.89;99258.75;4951491;28;20031;-68
2021/04/10 06:40:24;;;;;;;10.85;8.30;;;;;;;7.70;75.56;99258.34;4950908;28;20039;-69
2021/04/10 06:42:49;;;;;;;13.88;8.15;;;;;;;7.72;75.81;99258.25;4951163;28;20520;-69
2021/04/10 06:45:15;;;;;;;6.68;5.60;;;;;;;7.84;75.65;99262.94;4953404;28;20087;-69
2021/04/10 06:47:44;;;;;;;6.97;6.07;;;;;;;7.93;75.44;99266.91;4963500;28;20490;-69
2021/04/10 06:50:10;;;;;;;8.15;7.32;;;;;;;7.99;75.29;99271.88;4968565;28;20054;-70
2021/04/10 06:52:40;;;;;;;9.60;7.38;;;;;;;7.99;75.64;99263.16;4970337;28;20034;-69
2021/04/10 06:55:11;;;;;;;8.05;7.25;;;;;;;8.08;75.46;99271.44;4970366;28;20126;-70
2021/04/10 06:58:03;;;;;;;11.82;8.80;;;;;;;8.13;75.38;99265.97;4969916;28;20030;-70
2021/04/10 07:00:30;;;;;;;7.78;6.03;;;;;;;8.20;75.54;99269.16;4969286;28;20525;-69
2021/04/10 07:02:57;;;;;;;9.70;8.20;;;;;;;8.27;75.58;99276.69;4970474;28;20043;-69
2021/04/10 07:05:23;;;;;;;6.93;6.10;;;;;;;8.30;76.38;99268.63;4970063;28;20082;-69
2021/04/10 07:07:50;;;;;;;9.52;6.47;;;;;;;8.37;75.39;99274.47;4952267;28;20122;-69
2021/04/10 07:10:16;;;;;;;9.45;7.53;;;;;;;8.42;76.23;99274.25;4969577;28;20491;-69
2021/04/10 07:12:42;;;;;;;8.70;6.20;;;;;;;8.50;75.86;99280.00;4969514;28;20118;-68
2021/04/10 07:15:09;;;;;;;9.00;7.20;;;;;;;8.59;75.47;99272.50;4950394;28;20054;-69
2021/04/10 07:17:35;;;;;;;11.07;7.45;;;;;;;8.67;75.66;99276.53;4951022;28;21806;-68
2021/04/10 07:20:27;;;;;;;9.77;7.45;;;;;;;8.78;75.67;99277.69;4934071;28;20127;-68
2021/04/10 07:23:05;;;;;;;9.55;7.05;;;;;;;8.91;75.80;99274.44;4950658;28;20126;-69
2021/04/10 07:25:32;;;;;;;12.40;7.97;;;;;;;8.91;74.89;99270.06;4950287;28;20035;-69
2021/04/10 07:28:30;;;;;;;11.23;7.88;;;;;;;9.04;75.00;99280.78;4951868;28;20043;-69
2021/04/10 07:31:07;;;;;;;11.40;10.02;;;;;;;9.13;74.96;99280.31;4935563;29;20173;-69
2021/04/10 07:33:35;;;;;;;15.48;8.77;;;;;;;9.19;74.65;99276.53;4950387;28;20069;-69
2021/04/10 07:36:03;;;;;;;11.23;8.65;;;;;;;9.26;73.42;99275.28;4949992;28;20111;-68
2021/04/10 07:38:28;;;;;;;12.38;9.13;;;;;;;9.38;73.83;99279.06;4933491;28;20040;-70
2021/04/10 07:40:55;;;;;;;11.25;8.65;;;;;;;9.45;72.88;99273.38;4950839;28;20058;-70
2021/04/10 07:43:31;;;;;;;21.20;11.05;;;;;;;9.45;73.14;99276.00;4950535;28;20035;-69
2021/04/10 07:46:13;;;;;;;13.45;10.88;;;;;;;9.46;73.69;99276.84;4950454;28;20086;-68
2021/04/10 07:48:58;;;;;;;14.68;10.55;;;;;;;9.49;73.56;99276.69;4950203;28;20094;-69
2021/04/10 07:51:23;;;;;;;19.80;11.25;;;;;;;9.45;73.36;99273.38;4950337;28;20047;-68
2021/04/10 07:53:49;;;;;;;15.35;9.73;;;;;;;9.53;73.23;99277.41;4950314;28;20035;-68
2021/04/10 07:56:14;;;;;;;13.68;10.48;;;;;;;9.56;73.44;99272.81;4950540;28;20041;-71
2021/04/10 07:58:39;;;;;;;13.38;10.30;;;;;;;9.62;73.35;99280.38;4956843;28;20061;-70
2021/04/10 08:01:07;;;;;;;13.60;9.75;;;;;;;9.71;73.42;99279.03;4973536;28;20051;-68
2021/04/10 08:03:38;;;;;;;15.68;9.75;;;;;;;9.75;73.02;99277.09;4974549;28;20037;-70
2021/04/10 08:06:06;;;;;;;13.20;10.23;;;;;;;9.77;72.30;99280.47;4974843;28;20134;-70
2021/04/10 08:08:45;;;;;;;15.93;11.18;;;;;;;9.76;73.25;99277.00;4974805;28;20047;-69
2021/04/10 08:11:11;;;;;;;13.13;10.65;;;;;;;9.85;73.03;99278.28;4972942;28;20031;-69
2021/04/10 08:13:36;;;;;;;17.33;11.68;;;;;;;9.83;72.81;99278.38;4973526;28;20037;-69
2021/04/10 08:16:19;;;;;;;13.02;8.63;;;;;;;9.82;72.89;99287.22;4973200;28;20539;-69
2021/04/10 08:18:46;;;;;;;13.80;10.32;;;;;;;9.87;73.07;99282.53;4972979;28;20035;-68
2021/04/10 08:21:14;;;;;;;11.30;9.73;;;;;;;9.88;72.33;99278.97;4972480;28;20049;-69
2021/04/10 08:23:39;;;;;;;11.35;8.57;;;;;;;9.80;72.28;99286.44;4973176;28;20035;-69
2021/04/10 08:26:04;;;;;;;12.45;9.65;;;;;;;9.72;73.96;99277.25;4973175;28;20027;-69
2021/04/10 08:28:30;;;;;;;12.90;9.38;;;;;;;9.71;73.54;99283.44;4973066;28;20614;-69
2021/04/10 08:30:58;;;;;;;11.38;8.65;;;;;;;9.70;74.35;99285.22;4973293;28;20042;-69
2021/04/10 08:33:27;;;;;;;14.82;11.75;;;;;;;9.71;74.15;99286.06;4972729;28;20058;-69
2021/04/10 08:35:55;;;;;;;17.83;11.55;;;;;;;9.60;74.07;99284.88;4972586;28;20031;-68
2021/04/10 08:38:23;;;;;;;11.50;9.55;;;;;;;9.54;74.29;99287.81;4972892;28;20034;-68
2021/04/10 08:40:52;;;;;;;12.82;10.73;;;;;;;9.52;75.57;99281.78;4972601;28;20051;-68
2021/04/10 08:43:18;;;;;;;18.70;13.07;;;;;;;9.53;76.03;99283.50;4973279;28;20058;-69
2021/04/10 08:45:50;;;;;;;14.18;10.02;;;;;;;9.50;75.87;99283.66;4965636;28;20522;-69
2021/04/10 08:48:19;;;;;;;12.63;10.07;;;;;;;9.53;75.79;99280.88;4936455;28;20031;-69
2021/04/10 08:50:45;;;;;;;15.35;10.63;;;;;;;9.54;74.85;99282.56;4953546;28;20027;-68
2021/04/10 08:53:17;;;;;;;17.02;11.82;;;;;;;9.55;74.81;99279.00;4953892;28;20062;-68
2021/04/10 08:55:43;;;;;;;14.80;11.95;;;;;;;9.59;75.64;99274.41;4953484;28;20067;-70
2021/04/10 08:58:22;;;;;;;16.52;11.30;;;;;;;9.65;75.45;99285.47;4953866;28;20035;-69
2021/04/10 09:01:26;;;;;;;14.05;9.15;;;;;;;9.73;75.80;99292.13;4954538;28;20043;-68
2021/04/10 09:03:53;;;;;;;22.05;11.88;;;;;;;9.80;75.14;99289.06;4952859;28;20043;-69
2021/04/10 09:06:22;;;;;;;18.30;12.65;;;;;;;9.85;75.08;99297.56;4952990;28;20467;-69
2021/04/10 09:08:47;;;;;;;14.02;10.68;;;;;;;9.87;74.77;99295.72;4952300;28;20054;-68
2021/04/10 09:11:21;;;;;;;55.97;15.30;;;;;;;10.02;74.37;99286.13;4952505;28;20047;-68
2021/04/10 09:13:51;;;;;;;17.33;10.52;;;;;;;10.08;72.31;99277.88;4952414;28;20031;-68
2021/04/10 09:16:34;;;;;;;15.75;11.07;;;;;;;10.07;73.38;99280.59;4954850;28;20065;-68
2021/04/10 09:19:12;;;;;;;17.83;12.00;;;;;;;10.14;73.53;99276.69;4952378;28;20028;-68
2021/04/10 09:21:42;;;;;;;15.60;10.55;;;;;;;10.29;73.44;99278.50;4951883;28;20051;-68
2021/04/10 09:24:19;;;;;;;13.43;11.10;;;;;;;10.33;72.25;99279.16;4952545;28;20034;-67
2021/04/10 09:26:56;;;;;;;15.93;11.70;;;;;;;10.25;72.61;99279.56;4952348;28;20032;-68
2021/04/10 09:29:22;;;;;;;13.27;9.88;;;;;;;10.32;72.64;99280.94;4952437;28;20102;-68
2021/04/10 09:31:49;;;;;;;13.40;9.68;;;;;;;10.44;72.82;99282.06;4952190;28;20462;-68
2021/04/10 09:34:43;;;;;;;13.88;10.75;;;;;;;10.41;72.15;99284.88;4952091;28;20039;-68
2021/04/10 09:37:09;;;;;;;21.23;12.85;;;;;;;10.40;72.91;99285.78;4950567;28;20035;-68
2021/04/10 09:39:55;;;;;;;18.48;12.60;;;;;;;10.39;72.41;99283.25;4971164;28;20033;-69
2021/04/10 09:42:39;;;;;;;15.25;11.23;;;;;;;10.48;72.44;99282.72;4971079;28;20055;-69
2021/04/10 09:45:17;;;;;;;16.60;12.32;;;;;;;10.59;72.45;99282.13;4971429;28;20090;-70
2021/04/10 09:47:54;;;;;;;16.30;11.73;;;;;;;10.59;71.09;99277.69;4971486;28;20466;-69
2021/04/10 09:50:20;;;;;;;13.63;10.13;;;;;;;10.57;70.77;99279.56;4971206;28;20035;-67
2021/04/10 09:52:59;;;;;;;15.82;10.65;;;;;;;10.59;70.42;99271.56;4971828;28;20494;-68
2021/04/10 09:55:26;;;;;;;20.23;13.05;;;;;;;10.66;70.72;99271.13;4970975;28;20054;-67
2021/04/10 09:57:56;;;;;;;14.57;10.50;;;;;;;10.59;70.61;99272.41;4971082;28;20112;-68
2021/04/10 10:00:34;;;;;;;17.90;12.18;;;;;;;10.72;71.35;99268.13;4971019;28;20114;-68
2021/04/10 10:03:02;;;;;;;24.85;12.73;;;;;;;10.85;71.43;99268.25;4971166;28;20187;-68
2021/04/10 10:05:38;;;;;;;22.95;12.98;;;;;;;10.80;70.19;99267.66;4971033;28;20031;-68
2021/04/10 10:08:06;;;;;;;19.23;12.65;;;;;;;10.72;69.79;99265.47;4970357;28;20031;-69
2021/04/10 10:10:36;;;;;;;19.83;11.43;;;;;;;10.76;70.76;99265.31;4969136;28;20030;-69
2021/04/10 10:13:06;;;;;;;24.63;13.55;;;;;;;10.71;69.71;99270.88;4972648;28;20031;-69
2021/04/10 10:15:34;;;;;;;19.67;12.10;;;;;;;10.69;70.54;99256.91;4972121;28;20035;-70
2021/04/10 10:18:21;;;;;;;21.33;12.30;;;;;;;10.70;70.24;99263.88;4955231;28;20034;-70
2021/04/10 10:20:56;;;;;;;14.73;11.57;;;;;;;10.68;69.11;99258.72;4953474;28;20035;-69
2021/04/10 10:23:27;;;;;;;15.40;10.93;;;;;;;10.64;68.01;99262.44;4963323;28;20084;-69
2021/04/10 10:25:57;;;;;;;20.52;12.10;;;;;;;10.52;68.58;99252.63;4966960;28;20047;-71
2021/04/10 10:28:23;;;;;;;15.77;11.30;;;;;;;10.45;69.76;99251.28;4968530;28;20061;-69
2021/04/10 10:30:48;;;;;;;13.45;10.45;;;;;;;10.40;70.39;99248.06;4968972;28;20546;-69
2021/04/10 10:33:14;;;;;;;15.45;12.43;;;;;;;10.35;70.58;99248.31;4971292;28;20063;-69
2021/04/10 10:35:52;;;;;;;14.43;11.82;;;;;;;10.24;70.76;99248.06;4971632;28;20073;-69
2021/04/10 10:38:18;;;;;;;13.88;9.85;;;;;;;10.19;71.60;99239.53;4970983;28;20562;-70
2021/04/10 10:40:48;;;;;;;20.20;12.52;;;;;;;10.16;70.88;99244.97;4953112;28;20126;-69
2021/04/10 10:43:14;;;;;;;14.13;10.88;;;;;;;10.13;71.21;99237.25;4971133;28;20047;-68
2021/04/10 10:45:43;;;;;;;14.15;10.35;;;;;;;10.09;72.42;99234.81;4970410;28;20031;-69
2021/04/10 10:48:26;;;;;;;16.20;11.75;;;;;;;10.13;73.00;99230.19;4970861;28;20409;-69
2021/04/10 10:51:04;;;;;;;16.33;11.20;;;;;;;10.15;73.93;99225.69;4970795;28;20031;-68
2021/04/10 10:53:36;;;;;;;12.93;10.68;;;;;;;10.24;73.16;99224.34;4970857;28;20034;-68
2021/04/10 10:56:06;;;;;;;16.55;11.68;;;;;;;10.30;71.58;99224.00;4970201;28;20494;-68
2021/04/10 10:58:42;;;;;;;22.33;15.95;;;;;;;10.17;71.49;99221.19;4970622;28;20039;-69
2021/04/10 11:01:17;;;;;;;;;;;;;;;10.12;71.94;99217.13;4970483;28;20039;-69
2021/04/10 11:03:50;;;;;;;14.55;11.27;;;;;;;10.14;71.47;99215.25;4970404;28;19920;-66
2021/04/10 11:06:26;;;;;;;14.82;11.20;;;;;;;10.05;71.49;99216.63;4970721;28;20039;-69
2021/04/10 11:08:53;;;;;;;12.48;10.40;;;;;;;10.12;70.24;99203.97;4970516;28;20482;-67
2021/04/10 11:11:22;;;;;;;16.30;12.02;;;;;;;10.15;70.05;99198.53;4969829;28;20045;-69
2021/04/10 11:13:49;;;;;;;14.07;11.23;;;;;;;10.21;70.07;99196.34;4952669;28;20479;-68
2021/04/10 11:16:16;;;;;;;18.15;13.80;;;;;;;10.25;70.70;99197.91;4969644;28;20090;-68
2021/04/10 11:18:42;;;;;;;17.38;11.85;;;;;;;10.20;70.60;99191.19;4966460;28;20031;-69
2021/04/10 11:21:39;;;;;;;18.55;13.35;;;;;;;10.14;72.28;99188.91;4952467;28;20740;-69
2021/04/10 11:24:06;;;;;;;22.58;14.77;;;;;;;10.16;71.99;99181.75;4929920;28;20039;-69
2021/04/10 11:26:42;;;;;;;17.88;13.88;;;;;;;10.22;71.83;99186.69;4952000;28;20039;-69
2021/04/10 11:29:18;;;;;;;18.85;15.20;;;;;;;10.12;71.97;99180.25;4934503;28;20035;-69
2021/04/10 11:31:44;;;;;;;16.98;10.80;;;;;;;10.13;70.62;99166.16;4951096;28;20028;-70
2021/04/10 11:34:33;;;;;;;14.98;11.77;;;;;;;9.90;71.56;99176.22;4951747;28;20039;-68
2021/04/10 11:36:59;;;;;;;16.92;12.98;;;;;;;9.88;71.95;99168.38;4950996;28;20111;-69
2021/04/10 11:39:26;;;;;;;24.80;17.45;;;;;;;9.98;73.15;99167.88;4950059;28;20110;-69